Mount Dora, New Mexico
Current Conditions -  °F | °C
As of 12:55 PM on Friday 24 Oct 2014 (Local Time) from KCAO Reporting Station
Clear Clear  
Wind Chill: 82°   Ceiling: Unl
Heat Index: 82°   Visibility: 10mi
Dew Point: 31°   Wind: 14mph
Humidity: 16%   Direction: 200°SSW
Pressure: 30.18"   Gusts: NA
Location:  36.51°N, 103.49°W
Report Text: KCAO 241855Z AUTO 20012KT 10SM CLR 28/M01 A3018 RMK AO2 SLP160 T02781006
Loading
Personal Weather Stations






























Interactive Weather Map
Tropical Storm Tracking
New forecast layout! Learn more

10-Day Weather Forecast

Advertisements
Track Severe Weather on mobile